createdAt,value
2023-03-31T00:01:37.189Z,97449.81
2023-03-31T00:04:05.945Z,97456.63
2023-03-31T00:06:38.526Z,97449.72
2023-03-31T00:09:11.705Z,97436.91
2023-03-31T00:11:41.166Z,97429.91
2023-03-31T00:14:11.631Z,97415.47
2023-03-31T00:16:42.434Z,97420.44
2023-03-31T00:19:19.245Z,97422.25
2023-03-31T00:21:48.847Z,97422.34
2023-03-31T00:24:19.033Z,97419.94
2023-03-31T00:26:47.793Z,97410.44
2023-03-31T00:29:16.253Z,97399.25
2023-03-31T00:31:44.458Z,97409.19
2023-03-31T00:34:13.005Z,97401.59
2023-03-31T00:36:47.888Z,97400.91
2023-03-31T00:39:20.826Z,97411.25
2023-03-31T00:41:49.430Z,97408.94
2023-03-31T00:44:23.300Z,97404.63
2023-03-31T00:46:55.590Z,97393.81
2023-03-31T00:49:30.835Z,97405.88
2023-03-31T00:52:05.220Z,97407.16
2023-03-31T00:54:38.456Z,97391.06
2023-03-31T00:57:09.001Z,97390.28
2023-03-31T00:59:42.282Z,97382.59
2023-03-31T01:02:12.399Z,97386.91
2023-03-31T01:04:46.116Z,97371.78
2023-03-31T01:07:23.396Z,97375.16
2023-03-31T01:09:56.205Z,97371.69
2023-03-31T01:12:26.201Z,97361.44
2023-03-31T01:14:55.860Z,97358.94
2023-03-31T01:17:25.518Z,97347.97
2023-03-31T01:20:13.149Z,97342.91
2023-03-31T01:23:15.830Z,97347.34
2023-03-31T01:26:38.942Z,97327.91
2023-03-31T01:29:27.851Z,97322.13
2023-03-31T01:32:37.728Z,97322.03
2023-03-31T01:35:51.931Z,97326.88
2023-03-31T01:38:54.726Z,97323.78
2023-03-31T01:41:42.381Z,97315.47
2023-03-31T01:44:19.444Z,97322.41
2023-03-31T01:46:56.108Z,97325.81
2023-03-31T01:49:31.751Z,97319.84
2023-03-31T01:52:05.754Z,97305.31
2023-03-31T01:54:41.641Z,97300.31
2023-03-31T01:57:16.725Z,97299.34
2023-03-31T01:59:54.870Z,97297.63
2023-03-31T02:02:29.363Z,97292.41
2023-03-31T02:05:02.124Z,97274.56
2023-03-31T02:07:35.726Z,97280.41
2023-03-31T02:10:09.176Z,97268.66
2023-03-31T02:12:42.551Z,97278.53
2023-03-31T02:15:15.607Z,97277.66
2023-03-31T02:17:48.517Z,97275.78
2023-03-31T02:20:20.725Z,97266.44
2023-03-31T02:22:52.538Z,97260.41
2023-03-31T02:25:25.448Z,97266.28
2023-03-31T02:27:57.947Z,97275.59
2023-03-31T02:30:33.816Z,97262.78
2023-03-31T02:33:04.865Z,97260.13
2023-03-31T02:35:37.789Z,97266.94
2023-03-31T02:38:06.991Z,97243.22
2023-03-31T02:40:35.829Z,97249.69
2023-03-31T02:43:06.302Z,97246.22
2023-03-31T02:45:47.009Z,97245.41
2023-03-31T02:48:21.987Z,97242.00
2023-03-31T02:51:19.765Z,97239.53
2023-03-31T02:54:05.338Z,97231.00
2023-03-31T02:56:53.780Z,97218.28
2023-03-31T02:59:40.450Z,97221.75
2023-03-31T03:02:20.147Z,97223.41
2023-03-31T03:05:14.265Z,97205.41
2023-03-31T03:07:51.287Z,97205.41
2023-03-31T03:10:30.405Z,97194.19
2023-03-31T03:13:09.180Z,97194.28
2023-03-31T03:15:48.243Z,97184.72
2023-03-31T03:18:17.374Z,97171.97
2023-03-31T03:20:49.592Z,97170.16
2023-03-31T03:23:18.428Z,97166.63
2023-03-31T03:25:47.577Z,97166.47
2023-03-31T03:28:16.710Z,97161.63
2023-03-31T03:30:47.772Z,97162.34
2023-03-31T03:33:18.126Z,97149.66
2023-03-31T03:35:47.026Z,97146.84
2023-03-31T03:38:15.798Z,97146.84
2023-03-31T03:40:44.487Z,97145.06
2023-03-31T03:43:12.963Z,97139.91
2023-03-31T03:45:41.761Z,97136.25
2023-03-31T03:48:11.722Z,97141.41
2023-03-31T03:50:40.411Z,97129.75
2023-03-31T03:53:10.909Z,97132.50
2023-03-31T03:55:39.532Z,97131.03
2023-03-31T03:58:10.236Z,97133.53
2023-03-31T04:00:39.224Z,97138.09
2023-03-31T04:03:08.129Z,97134.06
2023-03-31T04:05:38.873Z,97117.91
2023-03-31T04:08:09.297Z,97111.38
2023-03-31T04:10:38.861Z,97127.41
2023-03-31T04:13:07.169Z,97129.16
2023-03-31T04:15:35.649Z,97116.34
2023-03-31T04:18:04.467Z,97112.88
2023-03-31T04:20:35.277Z,97100.97
2023-03-31T04:23:06.045Z,97091.63
2023-03-31T04:25:38.880Z,97101.63
2023-03-31T04:28:10.702Z,97096.59
2023-03-31T04:30:39.864Z,97089.81
2023-03-31T04:33:08.160Z,97076.31
2023-03-31T04:35:50.032Z,97064.44
2023-03-31T04:38:21.541Z,97071.94
2023-03-31T04:40:51.504Z,97066.06
2023-03-31T04:43:20.926Z,97060.00
2023-03-31T04:45:49.686Z,97044.63
2023-03-31T04:48:18.188Z,97042.13
2023-03-31T04:50:48.039Z,97042.03
2023-03-31T04:53:16.377Z,97027.53
2023-03-31T04:55:46.123Z,97021.56
2023-03-31T04:58:14.701Z,97012.28
2023-03-31T05:00:43.313Z,97013.84
2023-03-31T05:03:12.025Z,97011.38
2023-03-31T05:05:40.544Z,97001.97
2023-03-31T05:08:09.569Z,97004.41
2023-03-31T05:10:38.255Z,96997.47
2023-03-31T05:13:07.905Z,96993.16
2023-03-31T05:15:40.272Z,96993.28
2023-03-31T05:18:08.689Z,96986.53
2023-03-31T05:20:37.098Z,96989.88
2023-03-31T05:23:05.697Z,96988.25
2023-03-31T05:25:34.556Z,96977.97
2023-03-31T05:28:04.269Z,96965.81
2023-03-31T05:30:34.126Z,96949.78
2023-03-31T05:33:02.700Z,96941.19
2023-03-31T05:35:31.512Z,96937.97
2023-03-31T05:38:04.166Z,96930.28
2023-03-31T05:40:32.640Z,96940.25
2023-03-31T05:43:01.350Z,96927.47
2023-03-31T05:45:29.987Z,96914.66
2023-03-31T05:48:00.189Z,96913.06
2023-03-31T05:50:28.776Z,96915.16
2023-03-31T05:52:58.094Z,96913.22
2023-03-31T05:55:26.716Z,96912.97
2023-03-31T05:57:55.479Z,96894.78
2023-03-31T06:00:23.946Z,96903.91
2023-03-31T06:02:52.222Z,96902.06
2023-03-31T06:05:26.761Z,96891.69
2023-03-31T06:07:55.617Z,96891.47
2023-03-31T06:10:23.847Z,96888.75
2023-03-31T06:12:52.330Z,96883.50
2023-03-31T06:15:20.499Z,96880.00
2023-03-31T06:17:48.967Z,96885.78
2023-03-31T06:20:27.848Z,96881.66
2023-03-31T06:22:58.759Z,96885.84
2023-03-31T06:25:30.650Z,96880.81
2023-03-31T06:28:00.638Z,96886.50
2023-03-31T06:30:29.327Z,96874.03
2023-03-31T06:32:58.261Z,96884.53
2023-03-31T06:35:27.115Z,96892.16
2023-03-31T06:37:56.064Z,96892.28
2023-03-31T06:40:27.181Z,96890.84
2023-03-31T06:42:56.250Z,96896.69
2023-03-31T06:45:24.945Z,96903.75
2023-03-31T06:47:53.623Z,96909.81
2023-03-31T06:50:22.053Z,96906.78
2023-03-31T06:52:53.326Z,96914.59
2023-03-31T06:55:22.054Z,96924.34
2023-03-31T06:57:52.101Z,96927.81
2023-03-31T07:00:23.193Z,96942.69
2023-03-31T07:02:52.268Z,96931.88
2023-03-31T07:05:26.868Z,96927.84
2023-03-31T07:07:55.170Z,96923.47
2023-03-31T07:10:24.270Z,96926.63
2023-03-31T07:12:54.569Z,96928.59
2023-03-31T07:15:23.795Z,96920.91
2023-03-31T07:18:02.688Z,96911.63
2023-03-31T07:20:33.185Z,96906.31
2023-03-31T07:23:01.637Z,96893.38
2023-03-31T07:25:30.245Z,96895.84
2023-03-31T07:28:01.558Z,96899.16
2023-03-31T07:30:30.746Z,96862.81
2023-03-31T07:32:59.074Z,96881.19
2023-03-31T07:35:27.585Z,96867.41
2023-03-31T07:37:59.842Z,96866.41
2023-03-31T07:40:29.663Z,96852.16
2023-03-31T07:43:00.203Z,96858.75
2023-03-31T07:45:30.118Z,96852.69
2023-03-31T07:47:58.967Z,96839.63
2023-03-31T07:50:27.867Z,96830.03
2023-03-31T07:52:56.249Z,96815.75
2023-03-31T07:55:26.447Z,96814.94
2023-03-31T07:57:55.017Z,96810.63
2023-03-31T08:00:25.796Z,96821.91
2023-03-31T08:02:54.661Z,96816.53
2023-03-31T08:05:23.894Z,96825.16
2023-03-31T08:07:52.677Z,96832.53
2023-03-31T08:10:23.640Z,96823.09
2023-03-31T08:12:52.497Z,96818.47
2023-03-31T08:15:21.220Z,96830.44
2023-03-31T08:17:51.410Z,96837.78
2023-03-31T08:20:20.958Z,96843.63
2023-03-31T08:22:49.791Z,96837.03
2023-03-31T08:25:19.015Z,96842.91
2023-03-31T08:27:51.247Z,96847.19
2023-03-31T08:30:22.682Z,96819.78
2023-03-31T08:32:53.716Z,96819.59
2023-03-31T08:35:22.347Z,96812.72
2023-03-31T08:37:50.938Z,96803.63
2023-03-31T08:40:25.307Z,96805.88
2023-03-31T08:42:57.947Z,96803.84
2023-03-31T08:45:31.389Z,96781.75
2023-03-31T08:48:08.285Z,96720.72
2023-03-31T08:50:41.688Z,96630.41
2023-03-31T08:53:22.788Z,96542.66
2023-03-31T08:55:53.693Z,96608.03
2023-03-31T08:58:34.064Z,96626.88
2023-03-31T09:01:14.163Z,96641.84
2023-03-31T09:03:52.876Z,96658.72
2023-03-31T09:06:28.618Z,96678.56
2023-03-31T09:09:03.847Z,96698.97
2023-03-31T09:11:38.356Z,96712.72
2023-03-31T09:14:18.223Z,96710.75
2023-03-31T09:16:56.538Z,96707.25
2023-03-31T09:19:37.188Z,96707.50
2023-03-31T09:22:13.361Z,96690.44
2023-03-31T09:24:50.539Z,96690.63
2023-03-31T09:27:21.523Z,96682.25
2023-03-31T09:29:54.890Z,96681.56
2023-03-31T09:32:27.784Z,96670.69
2023-03-31T09:35:02.422Z,96667.78
2023-03-31T09:37:34.490Z,96667.44
2023-03-31T09:40:08.619Z,96669.78
2023-03-31T09:42:38.201Z,96685.28
2023-03-31T09:45:07.833Z,96677.13
2023-03-31T09:47:42.853Z,96675.09
2023-03-31T09:50:19.236Z,96671.09
2023-03-31T09:52:55.247Z,96662.50
2023-03-31T09:55:38.823Z,96662.06
2023-03-31T09:58:09.237Z,96644.03
2023-03-31T10:00:39.083Z,96618.59
2023-03-31T10:03:09.497Z,96634.59
2023-03-31T10:05:43.453Z,96627.16
2023-03-31T10:08:33.336Z,96625.00
2023-03-31T10:11:11.861Z,96624.88
2023-03-31T10:13:48.293Z,96624.09
2023-03-31T10:16:24.358Z,96618.13
2023-03-31T10:18:53.015Z,96616.94
2023-03-31T10:21:26.707Z,96618.69
2023-03-31T10:23:57.644Z,96605.50
2023-03-31T10:26:29.837Z,96600.06
2023-03-31T10:28:58.388Z,96604.97
2023-03-31T10:31:36.706Z,96599.44
2023-03-31T10:34:09.838Z,96596.09
2023-03-31T10:36:41.341Z,96584.84
2023-03-31T10:39:11.208Z,96589.28
2023-03-31T10:41:41.395Z,96582.81
2023-03-31T10:44:33.233Z,96575.47
2023-03-31T10:47:19.397Z,96574.69
2023-03-31T10:49:52.550Z,96573.47
2023-03-31T10:52:28.010Z,96553.53
2023-03-31T10:55:00.119Z,96568.16
2023-03-31T10:57:38.535Z,96553.34
2023-03-31T11:00:19.227Z,96541.31
2023-03-31T11:03:14.034Z,96547.50
2023-03-31T11:05:48.207Z,96543.41
2023-03-31T11:08:31.177Z,96534.88
2023-03-31T11:11:16.101Z,96534.63
2023-03-31T11:13:54.513Z,96516.47
2023-03-31T11:16:30.711Z,96532.88
2023-03-31T11:19:10.867Z,96516.25
2023-03-31T11:21:52.928Z,96548.03
2023-03-31T11:24:33.939Z,96550.56
2023-03-31T11:27:20.244Z,96521.50
2023-03-31T11:29:53.436Z,96530.66
2023-03-31T11:32:47.153Z,96528.09
2023-03-31T11:35:39.014Z,96498.09
2023-03-31T11:38:24.846Z,96513.69
2023-03-31T11:41:01.706Z,96493.72
2023-03-31T11:43:37.960Z,96485.38
2023-03-31T11:46:13.462Z,96482.56
2023-03-31T11:48:46.849Z,96480.19
2023-03-31T11:51:22.352Z,96487.78
2023-03-31T11:53:54.353Z,96474.66
2023-03-31T11:56:25.154Z,96497.06
2023-03-31T11:58:59.168Z,96487.41
2023-03-31T12:01:29.710Z,96517.41
2023-03-31T12:04:08.024Z,96516.38
2023-03-31T12:06:43.200Z,96539.81
2023-03-31T12:09:19.438Z,96521.78
2023-03-31T12:11:55.412Z,96512.38
2023-03-31T12:14:32.079Z,96508.81
2023-03-31T12:17:06.819Z,96511.53
2023-03-31T12:19:43.938Z,96501.59
2023-03-31T12:22:18.620Z,96488.16
2023-03-31T12:24:48.631Z,96502.16
2023-03-31T12:27:24.402Z,96487.88
2023-03-31T12:29:59.832Z,96507.56
2023-03-31T12:32:32.398Z,96505.56
2023-03-31T12:35:05.126Z,96514.16
2023-03-31T12:38:09.010Z,96500.16
2023-03-31T12:40:52.499Z,96517.91
2023-03-31T12:43:34.084Z,96513.03
2023-03-31T12:46:19.489Z,96517.59
2023-03-31T12:49:09.826Z,96508.84
2023-03-31T12:51:53.917Z,96509.94
2023-03-31T12:54:38.331Z,96492.47
2023-03-31T12:57:18.291Z,96492.66
2023-03-31T12:59:47.516Z,96461.00
2023-03-31T13:02:27.876Z,96453.38
2023-03-31T13:04:56.769Z,96455.81
2023-03-31T13:07:39.652Z,96516.97
2023-03-31T13:10:31.647Z,96701.19
2023-03-31T13:13:06.943Z,96676.44
2023-03-31T13:15:35.725Z,96622.19
2023-03-31T13:18:08.993Z,96608.69
2023-03-31T13:20:39.344Z,96607.06
2023-03-31T13:23:20.014Z,96605.16
2023-03-31T13:25:51.875Z,96588.59
2023-03-31T13:28:45.107Z,96570.56
2023-03-31T13:31:15.143Z,96575.75
2023-03-31T13:33:58.110Z,96555.09
2023-03-31T13:37:03.825Z,96547.56
2023-03-31T13:40:00.009Z,96536.63
2023-03-31T13:42:54.632Z,96528.72
2023-03-31T13:45:39.347Z,96543.22
2023-03-31T13:48:44.207Z,96523.78
2023-03-31T13:51:27.871Z,96534.78
2023-03-31T13:54:26.605Z,96529.94
2023-03-31T13:57:14.605Z,96523.66
2023-03-31T14:00:12.243Z,96528.06
2023-03-31T14:02:57.478Z,96525.53
2023-03-31T14:05:32.967Z,96524.31
2023-03-31T14:08:07.763Z,96509.34
2023-03-31T14:10:39.617Z,96510.00
2023-03-31T14:13:11.429Z,96509.19
2023-03-31T14:15:44.964Z,96499.16
2023-03-31T14:18:19.967Z,96494.53
2023-03-31T14:20:59.300Z,96501.41
2023-03-31T14:23:51.087Z,96483.47
2023-03-31T14:26:30.117Z,96481.88
2023-03-31T14:29:11.637Z,96465.88
2023-03-31T14:31:46.602Z,96468.69
2023-03-31T14:34:28.475Z,96466.47
2023-03-31T14:37:01.868Z,96469.34
2023-03-31T14:39:35.500Z,96470.44
2023-03-31T14:42:07.897Z,96465.75
2023-03-31T14:44:37.871Z,96453.59
2023-03-31T14:47:07.889Z,96464.00
2023-03-31T14:49:39.806Z,96464.13
2023-03-31T14:52:16.940Z,96457.97
2023-03-31T14:54:49.669Z,96467.44
2023-03-31T14:57:22.085Z,96458.19
2023-03-31T14:59:54.052Z,96459.41
2023-03-31T15:02:32.517Z,96454.69
2023-03-31T15:05:06.090Z,96444.09
2023-03-31T15:07:41.504Z,96431.09
2023-03-31T15:10:21.763Z,96434.81
2023-03-31T15:12:52.207Z,96441.34
2023-03-31T15:15:23.128Z,96447.88
2023-03-31T15:17:53.185Z,96422.19
2023-03-31T15:23:25.158Z,96424.31
2023-03-31T15:25:59.725Z,96428.63
2023-03-31T15:28:32.331Z,96427.47
2023-03-31T15:31:09.999Z,96432.59
2023-03-31T15:36:34.370Z,96436.81
2023-03-31T15:39:03.193Z,96436.47
2023-03-31T15:41:33.615Z,96444.19
2023-03-31T15:44:08.796Z,96444.94
2023-03-31T15:47:00.816Z,96444.59
2023-03-31T15:49:31.526Z,96432.97
2023-03-31T15:52:02.358Z,96436.50
2023-03-31T15:54:38.726Z,96437.50
2023-03-31T15:57:12.596Z,96432.13
2023-03-31T16:02:44.710Z,96412.16
2023-03-31T16:05:37.357Z,96416.22
2023-03-31T16:08:16.655Z,96410.75
2023-03-31T16:10:45.890Z,96403.31
2023-03-31T16:13:23.412Z,96407.53
2023-03-31T16:15:55.318Z,96408.47
2023-03-31T16:18:31.143Z,96416.28
2023-03-31T16:21:02.487Z,96407.56
2023-03-31T16:23:33.902Z,96414.56
2023-03-31T16:26:04.141Z,96413.91
2023-03-31T16:28:37.081Z,96401.81
2023-03-31T16:31:07.368Z,96414.09
2023-03-31T16:33:55.548Z,96417.84
2023-03-31T16:36:24.302Z,96413.34
2023-03-31T16:38:54.042Z,96408.84
2023-03-31T16:41:23.359Z,96414.16
2023-03-31T16:43:55.005Z,96430.56
2023-03-31T16:46:25.028Z,96440.13
2023-03-31T16:48:54.989Z,96424.75
2023-03-31T16:51:25.124Z,96427.84
2023-03-31T16:53:53.713Z,96435.31
2023-03-31T16:56:22.465Z,96443.22
2023-03-31T16:58:50.999Z,96440.91
2023-03-31T17:01:21.563Z,96442.09
2023-03-31T17:03:50.142Z,96448.78
2023-03-31T17:06:20.460Z,96458.59
2023-03-31T17:08:49.319Z,96450.81
2023-03-31T17:11:18.421Z,96464.13
2023-03-31T17:13:48.913Z,96462.94
2023-03-31T17:16:24.418Z,96456.59
2023-03-31T17:19:02.712Z,96458.22
2023-03-31T17:21:31.707Z,96452.22
2023-03-31T17:24:01.824Z,96468.94
2023-03-31T17:26:32.448Z,96470.66
2023-03-31T17:29:02.264Z,96456.56
2023-03-31T17:31:31.202Z,96464.72
2023-03-31T17:34:00.726Z,96471.69
2023-03-31T17:36:31.896Z,96458.97
2023-03-31T17:39:01.147Z,96468.03
2023-03-31T17:41:31.436Z,96466.38
2023-03-31T17:44:01.387Z,96476.19
2023-03-31T17:46:30.511Z,96482.50
2023-03-31T17:49:00.230Z,96482.16
2023-03-31T17:51:35.079Z,96486.63
2023-03-31T17:54:04.828Z,96481.59
2023-03-31T17:56:33.512Z,96472.69
2023-03-31T17:59:02.618Z,96470.75
2023-03-31T18:01:33.572Z,96478.09
2023-03-31T18:04:02.736Z,96487.41
2023-03-31T18:06:33.528Z,96491.94
2023-03-31T18:09:02.636Z,96486.78
2023-03-31T18:11:32.336Z,96491.47
2023-03-31T18:14:02.886Z,96503.88
2023-03-31T18:16:32.650Z,96505.19
2023-03-31T18:19:01.185Z,96493.09
2023-03-31T18:21:30.518Z,96499.00
2023-03-31T18:24:00.854Z,96490.34
2023-03-31T18:26:31.125Z,96512.16
2023-03-31T18:28:59.925Z,96511.31
2023-03-31T18:31:28.804Z,96511.09
2023-03-31T18:33:58.164Z,96508.00
2023-03-31T18:36:30.167Z,96503.19
2023-03-31T18:39:01.076Z,96514.56
2023-03-31T18:41:30.172Z,96522.41
2023-03-31T18:43:59.627Z,96522.69
2023-03-31T18:46:28.124Z,96525.50
2023-03-31T18:48:56.694Z,96515.16
2023-03-31T18:51:25.756Z,96511.91
2023-03-31T18:53:56.656Z,96534.25
2023-03-31T18:56:28.708Z,96531.34
2023-03-31T18:58:58.079Z,96533.50
2023-03-31T19:01:26.758Z,96532.28
2023-03-31T19:03:55.190Z,96553.03
2023-03-31T19:06:24.077Z,96547.94
2023-03-31T19:08:54.904Z,96558.28
2023-03-31T19:11:24.142Z,96546.34
2023-03-31T19:13:55.731Z,96555.63
2023-03-31T19:16:24.817Z,96554.75
2023-03-31T19:18:53.681Z,96553.03
2023-03-31T19:21:22.435Z,96558.97
2023-03-31T19:23:51.118Z,96562.88
2023-03-31T19:26:21.554Z,96546.63
2023-03-31T19:28:50.263Z,96565.06
2023-03-31T19:31:20.654Z,96568.72
2023-03-31T19:33:49.772Z,96556.16
2023-03-31T19:36:19.100Z,96556.16
2023-03-31T19:38:48.404Z,96552.25
2023-03-31T19:41:18.647Z,96548.78
2023-03-31T19:43:48.504Z,96548.63
2023-03-31T19:46:17.596Z,96559.34
2023-03-31T19:48:50.019Z,96563.06
2023-03-31T19:51:19.305Z,96555.38
2023-03-31T19:53:48.310Z,96554.16
2023-03-31T19:56:19.695Z,96533.50
2023-03-31T19:58:50.506Z,96545.25
2023-03-31T20:01:21.599Z,96547.19
2023-03-31T20:03:53.675Z,96538.94
2023-03-31T20:06:24.075Z,96545.47
2023-03-31T20:08:54.474Z,96555.34
2023-03-31T20:11:24.352Z,96552.69
2023-03-31T20:13:53.360Z,96566.00
2023-03-31T20:16:23.976Z,96568.09
2023-03-31T20:18:56.898Z,96567.19
2023-03-31T20:21:28.065Z,96576.59
2023-03-31T20:23:57.610Z,96586.84
2023-03-31T20:26:29.650Z,96599.72
2023-03-31T20:28:59.182Z,96598.44
2023-03-31T20:31:30.174Z,96604.53
2023-03-31T20:34:00.431Z,96599.59
2023-03-31T20:36:32.498Z,96595.38
2023-03-31T20:39:04.440Z,96610.88
2023-03-31T20:41:34.161Z,96582.56
2023-03-31T20:44:04.284Z,96602.22
2023-03-31T20:46:33.150Z,96582.09
2023-03-31T20:49:04.561Z,96580.47
2023-03-31T20:51:37.638Z,96586.50
2023-03-31T20:54:08.068Z,96586.63
2023-03-31T20:56:39.829Z,96580.72
2023-03-31T20:59:10.759Z,96572.63
2023-03-31T21:01:39.694Z,96572.31
2023-03-31T21:04:11.990Z,96575.88
2023-03-31T21:06:42.247Z,96587.53
2023-03-31T21:09:11.978Z,96595.97
2023-03-31T21:11:41.828Z,96591.81
2023-03-31T21:14:13.829Z,96598.50
2023-03-31T21:16:43.208Z,96595.31
2023-03-31T21:19:13.478Z,96604.50
2023-03-31T21:21:43.524Z,96603.41
2023-03-31T21:24:13.543Z,96615.56
2023-03-31T21:26:44.073Z,96611.31
2023-03-31T21:29:13.126Z,96613.00
2023-03-31T21:31:45.151Z,96616.50
2023-03-31T21:34:16.772Z,96626.03
2023-03-31T21:36:44.976Z,96622.81
2023-03-31T21:39:14.264Z,96613.69
2023-03-31T21:41:44.328Z,96625.31
2023-03-31T21:44:13.532Z,96621.03
2023-03-31T21:46:45.409Z,96618.47
2023-03-31T21:49:17.433Z,96616.09
2023-03-31T21:51:47.359Z,96611.25
2023-03-31T21:54:17.700Z,96612.50
2023-03-31T21:56:47.245Z,96625.78
2023-03-31T21:59:16.213Z,96617.03
2023-03-31T22:01:46.042Z,96611.41
2023-03-31T22:04:17.578Z,96621.00
2023-03-31T22:06:46.748Z,96614.97
2023-03-31T22:09:15.901Z,96614.47
2023-03-31T22:11:44.910Z,96614.78
2023-03-31T22:14:13.575Z,96610.84
2023-03-31T22:16:43.132Z,96608.25
2023-03-31T22:19:14.341Z,96594.97
2023-03-31T22:21:45.916Z,96596.75
2023-03-31T22:24:15.484Z,96611.16
2023-03-31T22:26:44.934Z,96617.34
2023-03-31T22:29:16.768Z,96615.31
2023-03-31T22:31:45.830Z,96609.63
2023-03-31T22:34:17.283Z,96602.91
2023-03-31T22:36:48.037Z,96601.34
2023-03-31T22:39:18.134Z,96607.09
2023-03-31T22:41:47.642Z,96614.38
2023-03-31T22:44:17.160Z,96623.63
2023-03-31T22:46:48.059Z,96603.03
2023-03-31T22:49:17.910Z,96601.69
2023-03-31T22:51:48.822Z,96607.31
2023-03-31T22:54:19.213Z,96607.44
2023-03-31T22:56:48.202Z,96609.47
2023-03-31T22:59:17.668Z,96622.91
2023-03-31T23:01:48.213Z,96596.78
2023-03-31T23:04:17.266Z,96600.66
2023-03-31T23:06:45.925Z,96606.69
2023-03-31T23:09:15.824Z,96607.28
2023-03-31T23:11:47.283Z,96611.03
2023-03-31T23:14:15.608Z,96611.09
2023-03-31T23:16:45.382Z,96604.72
2023-03-31T23:19:15.267Z,96602.22
2023-03-31T23:21:44.199Z,96602.22
2023-03-31T23:24:12.974Z,96602.94
2023-03-31T23:26:42.991Z,96594.84
2023-03-31T23:29:12.100Z,96588.81
2023-03-31T23:31:41.716Z,96589.72
2023-03-31T23:34:10.495Z,96589.19
2023-03-31T23:36:38.981Z,96602.22
2023-03-31T23:39:08.953Z,96585.72
2023-03-31T23:41:37.776Z,96589.94
2023-03-31T23:44:08.315Z,96587.50
2023-03-31T23:46:38.435Z,96595.75
2023-03-31T23:49:07.998Z,96597.69
2023-03-31T23:51:37.013Z,96589.81
2023-03-31T23:54:06.579Z,96577.19
2023-03-31T23:56:35.234Z,96588.63
2023-03-31T23:59:04.305Z,96583.41
